sensor_id;sensor_type;location;lat;lon;timestamp;P1;durP1;ratioP1;P2;durP2;ratioP2
24685;SDS011;12804;51.176;4.452;2023-12-22T00:00:47;16.80;;;2.22;;
24685;SDS011;12804;51.176;4.452;2023-12-22T00:03:13;13.98;;;1.95;;
24685;SDS011;12804;51.176;4.452;2023-12-22T00:05:40;15.32;;;2.67;;
24685;SDS011;12804;51.176;4.452;2023-12-22T00:08:06;12.32;;;2.20;;
24685;SDS011;12804;51.176;4.452;2023-12-22T00:10:32;16.98;;;2.67;;
24685;SDS011;12804;51.176;4.452;2023-12-22T00:12:58;15.45;;;2.47;;
24685;SDS011;12804;51.176;4.452;2023-12-22T00:15:23;22.48;;;2.53;;
24685;SDS011;12804;51.176;4.452;2023-12-22T00:17:49;10.02;;;2.53;;
24685;SDS011;12804;51.176;4.452;2023-12-22T00:20:15;15.02;;;2.78;;
24685;SDS011;12804;51.176;4.452;2023-12-22T00:22:41;19.23;;;2.60;;
24685;SDS011;12804;51.176;4.452;2023-12-22T00:25:07;11.57;;;2.42;;
24685;SDS011;12804;51.176;4.452;2023-12-22T00:27:34;14.10;;;2.55;;
24685;SDS011;12804;51.176;4.452;2023-12-22T00:30:00;13.50;;;2.03;;
24685;SDS011;12804;51.176;4.452;2023-12-22T00:32:26;10.52;;;1.80;;
24685;SDS011;12804;51.176;4.452;2023-12-22T00:34:52;13.65;;;2.13;;
24685;SDS011;12804;51.176;4.452;2023-12-22T00:37:18;10.70;;;2.00;;
24685;SDS011;12804;51.176;4.452;2023-12-22T00:39:44;11.65;;;2.08;;
24685;SDS011;12804;51.176;4.452;2023-12-22T00:42:09;13.52;;;2.25;;
24685;SDS011;12804;51.176;4.452;2023-12-22T00:44:35;17.48;;;2.25;;
24685;SDS011;12804;51.176;4.452;2023-12-22T00:47:01;13.65;;;2.05;;
24685;SDS011;12804;51.176;4.452;2023-12-22T00:49:27;9.02;;;2.08;;
24685;SDS011;12804;51.176;4.452;2023-12-22T00:51:53;14.35;;;2.25;;
24685;SDS011;12804;51.176;4.452;2023-12-22T00:54:19;14.40;;;2.65;;
24685;SDS011;12804;51.176;4.452;2023-12-22T00:56:45;11.63;;;2.17;;
24685;SDS011;12804;51.176;4.452;2023-12-22T00:59:11;15.35;;;2.53;;
24685;SDS011;12804;51.176;4.452;2023-12-22T01:01:36;18.73;;;2.78;;
24685;SDS011;12804;51.176;4.452;2023-12-22T01:04:02;15.43;;;2.70;;
24685;SDS011;12804;51.176;4.452;2023-12-22T01:06:28;16.75;;;3.20;;
24685;SDS011;12804;51.176;4.452;2023-12-22T01:08:54;11.18;;;2.65;;
24685;SDS011;12804;51.176;4.452;2023-12-22T01:11:20;16.80;;;2.97;;
24685;SDS011;12804;51.176;4.452;2023-12-22T01:13:45;15.68;;;2.65;;
24685;SDS011;12804;51.176;4.452;2023-12-22T01:16:11;17.30;;;3.33;;
24685;SDS011;12804;51.176;4.452;2023-12-22T01:18:37;12.70;;;2.40;;
24685;SDS011;12804;51.176;4.452;2023-12-22T01:21:05;13.80;;;1.88;;
24685;SDS011;12804;51.176;4.452;2023-12-22T01:23:31;18.38;;;2.17;;
24685;SDS011;12804;51.176;4.452;2023-12-22T01:25:56;17.88;;;2.90;;
24685;SDS011;12804;51.176;4.452;2023-12-22T01:28:22;18.35;;;3.05;;
24685;SDS011;12804;51.176;4.452;2023-12-22T01:30:49;24.63;;;2.95;;
24685;SDS011;12804;51.176;4.452;2023-12-22T01:33:15;19.10;;;2.50;;
24685;SDS011;12804;51.176;4.452;2023-12-22T01:35:40;21.55;;;2.40;;
24685;SDS011;12804;51.176;4.452;2023-12-22T01:38:06;14.00;;;2.80;;
24685;SDS011;12804;51.176;4.452;2023-12-22T01:40:32;18.45;;;3.17;;
24685;SDS011;12804;51.176;4.452;2023-12-22T01:42:58;16.85;;;2.63;;
24685;SDS011;12804;51.176;4.452;2023-12-22T01:45:24;18.67;;;3.33;;
24685;SDS011;12804;51.176;4.452;2023-12-22T01:47:50;16.55;;;3.30;;
24685;SDS011;12804;51.176;4.452;2023-12-22T01:50:17;18.70;;;3.08;;
24685;SDS011;12804;51.176;4.452;2023-12-22T01:52:43;20.80;;;2.80;;
24685;SDS011;12804;51.176;4.452;2023-12-22T01:55:10;18.90;;;3.38;;
24685;SDS011;12804;51.176;4.452;2023-12-22T01:57:37;23.05;;;3.03;;
24685;SDS011;12804;51.176;4.452;2023-12-22T02:00:06;14.63;;;2.58;;
24685;SDS011;12804;51.176;4.452;2023-12-22T02:02:37;15.40;;;2.40;;
24685;SDS011;12804;51.176;4.452;2023-12-22T02:05:04;17.88;;;3.13;;
24685;SDS011;12804;51.176;4.452;2023-12-22T02:07:31;19.25;;;2.92;;
24685;SDS011;12804;51.176;4.452;2023-12-22T02:09:57;16.73;;;2.65;;
24685;SDS011;12804;51.176;4.452;2023-12-22T02:12:23;14.45;;;2.80;;
24685;SDS011;12804;51.176;4.452;2023-12-22T02:14:49;16.35;;;2.72;;
24685;SDS011;12804;51.176;4.452;2023-12-22T02:17:20;13.50;;;2.28;;
24685;SDS011;12804;51.176;4.452;2023-12-22T02:19:57;16.55;;;2.90;;
24685;SDS011;12804;51.176;4.452;2023-12-22T02:22:24;13.05;;;2.55;;
24685;SDS011;12804;51.176;4.452;2023-12-22T02:24:49;14.05;;;2.55;;
24685;SDS011;12804;51.176;4.452;2023-12-22T02:32:40;14.43;;;2.08;;
24685;SDS011;12804;51.176;4.452;2023-12-22T02:35:14;12.43;;;2.15;;
24685;SDS011;12804;51.176;4.452;2023-12-22T02:37:42;12.02;;;2.20;;
24685;SDS011;12804;51.176;4.452;2023-12-22T02:40:10;12.88;;;2.00;;
24685;SDS011;12804;51.176;4.452;2023-12-22T02:42:37;13.98;;;2.08;;
24685;SDS011;12804;51.176;4.452;2023-12-22T02:45:04;15.80;;;2.08;;
24685;SDS011;12804;51.176;4.452;2023-12-22T02:47:31;14.45;;;2.13;;
24685;SDS011;12804;51.176;4.452;2023-12-22T02:49:58;14.25;;;2.13;;
24685;SDS011;12804;51.176;4.452;2023-12-22T02:52:24;17.55;;;2.58;;
24685;SDS011;12804;51.176;4.452;2023-12-22T02:54:50;20.38;;;2.55;;
24685;SDS011;12804;51.176;4.452;2023-12-22T02:57:16;11.85;;;2.45;;
24685;SDS011;12804;51.176;4.452;2023-12-22T02:59:42;14.38;;;2.40;;
24685;SDS011;12804;51.176;4.452;2023-12-22T03:02:07;14.90;;;2.08;;
24685;SDS011;12804;51.176;4.452;2023-12-22T03:04:33;16.95;;;2.65;;
24685;SDS011;12804;51.176;4.452;2023-12-22T03:06:59;12.93;;;3.03;;
24685;SDS011;12804;51.176;4.452;2023-12-22T03:09:25;13.05;;;2.08;;
24685;SDS011;12804;51.176;4.452;2023-12-22T03:11:51;16.67;;;2.60;;
24685;SDS011;12804;51.176;4.452;2023-12-22T03:14:21;14.65;;;2.67;;
24685;SDS011;12804;51.176;4.452;2023-12-22T03:16:47;15.07;;;2.38;;
24685;SDS011;12804;51.176;4.452;2023-12-22T03:19:13;13.07;;;2.80;;
24685;SDS011;12804;51.176;4.452;2023-12-22T03:21:38;13.07;;;2.17;;
24685;SDS011;12804;51.176;4.452;2023-12-22T03:24:04;11.55;;;2.40;;
24685;SDS011;12804;51.176;4.452;2023-12-22T03:26:30;14.70;;;2.53;;
24685;SDS011;12804;51.176;4.452;2023-12-22T03:28:56;17.20;;;2.55;;
24685;SDS011;12804;51.176;4.452;2023-12-22T03:31:22;16.83;;;2.63;;
24685;SDS011;12804;51.176;4.452;2023-12-22T03:33:47;13.65;;;2.50;;
24685;SDS011;12804;51.176;4.452;2023-12-22T03:36:13;15.60;;;2.58;;
24685;SDS011;12804;51.176;4.452;2023-12-22T03:38:39;17.77;;;2.90;;
24685;SDS011;12804;51.176;4.452;2023-12-22T03:41:05;18.92;;;2.70;;
24685;SDS011;12804;51.176;4.452;2023-12-22T03:43:32;19.52;;;2.88;;
24685;SDS011;12804;51.176;4.452;2023-12-22T03:45:59;21.30;;;2.88;;
24685;SDS011;12804;51.176;4.452;2023-12-22T03:48:25;20.35;;;3.22;;
24685;SDS011;12804;51.176;4.452;2023-12-22T03:50:50;22.88;;;3.58;;
24685;SDS011;12804;51.176;4.452;2023-12-22T03:53:16;21.63;;;3.03;;
24685;SDS011;12804;51.176;4.452;2023-12-22T03:55:42;17.40;;;3.70;;
24685;SDS011;12804;51.176;4.452;2023-12-22T03:58:08;19.20;;;3.58;;
24685;SDS011;12804;51.176;4.452;2023-12-22T04:00:34;23.88;;;3.40;;
24685;SDS011;12804;51.176;4.452;2023-12-22T04:03:00;24.30;;;4.00;;
24685;SDS011;12804;51.176;4.452;2023-12-22T04:05:26;20.02;;;2.97;;
24685;SDS011;12804;51.176;4.452;2023-12-22T04:07:52;21.15;;;3.45;;
24685;SDS011;12804;51.176;4.452;2023-12-22T04:10:18;19.50;;;3.42;;
24685;SDS011;12804;51.176;4.452;2023-12-22T04:12:44;23.15;;;3.28;;
24685;SDS011;12804;51.176;4.452;2023-12-22T04:15:10;21.20;;;3.17;;
24685;SDS011;12804;51.176;4.452;2023-12-22T04:17:36;17.42;;;3.20;;
24685;SDS011;12804;51.176;4.452;2023-12-22T04:20:02;19.27;;;3.50;;
24685;SDS011;12804;51.176;4.452;2023-12-22T04:22:28;18.17;;;3.65;;
24685;SDS011;12804;51.176;4.452;2023-12-22T04:24:53;23.40;;;4.10;;
24685;SDS011;12804;51.176;4.452;2023-12-22T04:27:19;24.83;;;3.45;;
24685;SDS011;12804;51.176;4.452;2023-12-22T04:29:45;18.80;;;2.90;;
24685;SDS011;12804;51.176;4.452;2023-12-22T04:32:11;21.98;;;4.20;;
24685;SDS011;12804;51.176;4.452;2023-12-22T04:34:36;20.98;;;3.42;;
24685;SDS011;12804;51.176;4.452;2023-12-22T04:37:02;28.50;;;4.63;;
24685;SDS011;12804;51.176;4.452;2023-12-22T04:39:28;25.25;;;3.95;;
24685;SDS011;12804;51.176;4.452;2023-12-22T04:41:54;23.45;;;3.40;;
24685;SDS011;12804;51.176;4.452;2023-12-22T04:44:20;29.27;;;4.40;;
24685;SDS011;12804;51.176;4.452;2023-12-22T04:46:45;22.05;;;3.20;;
24685;SDS011;12804;51.176;4.452;2023-12-22T04:49:11;29.20;;;4.82;;
24685;SDS011;12804;51.176;4.452;2023-12-22T04:51:37;32.28;;;4.65;;
24685;SDS011;12804;51.176;4.452;2023-12-22T04:54:03;25.08;;;4.13;;
24685;SDS011;12804;51.176;4.452;2023-12-22T04:56:28;26.98;;;4.05;;
24685;SDS011;12804;51.176;4.452;2023-12-22T04:58:54;23.25;;;4.15;;
24685;SDS011;12804;51.176;4.452;2023-12-22T05:01:20;25.50;;;3.83;;
24685;SDS011;12804;51.176;4.452;2023-12-22T05:03:46;31.85;;;5.60;;
24685;SDS011;12804;51.176;4.452;2023-12-22T05:06:12;24.45;;;3.67;;
24685;SDS011;12804;51.176;4.452;2023-12-22T05:08:37;24.85;;;4.30;;
24685;SDS011;12804;51.176;4.452;2023-12-22T05:11:03;26.13;;;4.32;;
24685;SDS011;12804;51.176;4.452;2023-12-22T05:13:30;24.88;;;3.67;;
24685;SDS011;12804;51.176;4.452;2023-12-22T05:15:56;26.30;;;4.03;;
24685;SDS011;12804;51.176;4.452;2023-12-22T05:18:21;27.67;;;4.88;;
24685;SDS011;12804;51.176;4.452;2023-12-22T05:20:47;26.20;;;4.90;;
24685;SDS011;12804;51.176;4.452;2023-12-22T05:23:13;32.17;;;4.68;;
24685;SDS011;12804;51.176;4.452;2023-12-22T05:25:39;23.75;;;4.68;;
24685;SDS011;12804;51.176;4.452;2023-12-22T05:28:05;31.83;;;4.28;;
24685;SDS011;12804;51.176;4.452;2023-12-22T05:30:31;22.02;;;4.18;;
24685;SDS011;12804;51.176;4.452;2023-12-22T05:32:57;25.67;;;4.60;;
24685;SDS011;12804;51.176;4.452;2023-12-22T05:35:23;25.67;;;4.45;;
24685;SDS011;12804;51.176;4.452;2023-12-22T05:37:48;31.17;;;4.82;;
24685;SDS011;12804;51.176;4.452;2023-12-22T05:40:15;29.85;;;4.68;;
24685;SDS011;12804;51.176;4.452;2023-12-22T05:42:41;25.17;;;4.13;;
24685;SDS011;12804;51.176;4.452;2023-12-22T05:45:07;25.83;;;4.35;;
24685;SDS011;12804;51.176;4.452;2023-12-22T05:47:34;22.25;;;4.30;;
24685;SDS011;12804;51.176;4.452;2023-12-22T05:50:00;24.00;;;3.92;;
24685;SDS011;12804;51.176;4.452;2023-12-22T05:52:26;27.92;;;4.45;;
24685;SDS011;12804;51.176;4.452;2023-12-22T05:54:51;25.90;;;4.43;;
24685;SDS011;12804;51.176;4.452;2023-12-22T05:57:17;29.35;;;5.13;;
24685;SDS011;12804;51.176;4.452;2023-12-22T05:59:43;23.17;;;4.00;;
24685;SDS011;12804;51.176;4.452;2023-12-22T06:02:09;23.95;;;4.60;;
24685;SDS011;12804;51.176;4.452;2023-12-22T06:04:35;23.92;;;4.05;;
24685;SDS011;12804;51.176;4.452;2023-12-22T06:07:00;24.90;;;3.65;;
24685;SDS011;12804;51.176;4.452;2023-12-22T06:09:26;19.90;;;3.83;;
24685;SDS011;12804;51.176;4.452;2023-12-22T06:11:52;24.73;;;4.43;;
24685;SDS011;12804;51.176;4.452;2023-12-22T06:14:18;20.73;;;3.33;;
24685;SDS011;12804;51.176;4.452;2023-12-22T06:16:44;26.92;;;4.47;;
24685;SDS011;12804;51.176;4.452;2023-12-22T06:19:10;22.98;;;4.20;;
24685;SDS011;12804;51.176;4.452;2023-12-22T06:21:39;22.10;;;3.50;;
24685;SDS011;12804;51.176;4.452;2023-12-22T06:24:05;21.52;;;3.17;;
24685;SDS011;12804;51.176;4.452;2023-12-22T06:26:31;21.60;;;3.60;;
24685;SDS011;12804;51.176;4.452;2023-12-22T06:28:57;19.42;;;3.75;;
24685;SDS011;12804;51.176;4.452;2023-12-22T06:31:22;22.80;;;3.97;;
24685;SDS011;12804;51.176;4.452;2023-12-22T06:33:49;15.77;;;3.03;;
24685;SDS011;12804;51.176;4.452;2023-12-22T06:36:19;20.38;;;3.20;;
24685;SDS011;12804;51.176;4.452;2023-12-22T06:38:46;22.00;;;3.17;;
24685;SDS011;12804;51.176;4.452;2023-12-22T06:41:22;14.98;;;2.85;;
24685;SDS011;12804;51.176;4.452;2023-12-22T06:43:49;16.55;;;2.58;;
24685;SDS011;12804;51.176;4.452;2023-12-22T06:46:19;14.85;;;2.63;;
24685;SDS011;12804;51.176;4.452;2023-12-22T06:48:47;15.13;;;2.25;;
24685;SDS011;12804;51.176;4.452;2023-12-22T06:51:26;15.68;;;2.92;;
24685;SDS011;12804;51.176;4.452;2023-12-22T06:53:55;12.18;;;2.28;;
24685;SDS011;12804;51.176;4.452;2023-12-22T06:56:22;15.30;;;2.92;;
24685;SDS011;12804;51.176;4.452;2023-12-22T06:58:50;17.27;;;2.47;;
24685;SDS011;12804;51.176;4.452;2023-12-22T07:03:59;13.50;;;2.37;;
24685;SDS011;12804;51.176;4.452;2023-12-22T07:06:27;13.43;;;2.20;;
24685;SDS011;12804;51.176;4.452;2023-12-22T07:11:38;14.43;;;2.20;;
24685;SDS011;12804;51.176;4.452;2023-12-22T07:14:04;14.25;;;1.92;;
24685;SDS011;12804;51.176;4.452;2023-12-22T07:16:29;10.43;;;1.73;;
24685;SDS011;12804;51.176;4.452;2023-12-22T07:18:55;15.88;;;2.17;;
24685;SDS011;12804;51.176;4.452;2023-12-22T07:21:21;14.98;;;1.85;;
24685;SDS011;12804;51.176;4.452;2023-12-22T07:23:47;11.70;;;1.77;;
24685;SDS011;12804;51.176;4.452;2023-12-22T07:26:13;10.95;;;2.03;;
24685;SDS011;12804;51.176;4.452;2023-12-22T07:28:38;11.48;;;1.77;;
24685;SDS011;12804;51.176;4.452;2023-12-22T07:31:04;11.10;;;2.13;;
24685;SDS011;12804;51.176;4.452;2023-12-22T07:33:30;14.70;;;2.20;;
24685;SDS011;12804;51.176;4.452;2023-12-22T07:35:56;12.50;;;2.25;;
24685;SDS011;12804;51.176;4.452;2023-12-22T07:38:22;15.98;;;2.88;;
24685;SDS011;12804;51.176;4.452;2023-12-22T07:40:48;12.90;;;2.72;;
24685;SDS011;12804;51.176;4.452;2023-12-22T07:43:15;15.52;;;2.30;;
24685;SDS011;12804;51.176;4.452;2023-12-22T07:45:41;9.65;;;2.20;;
24685;SDS011;12804;51.176;4.452;2023-12-22T07:48:07;14.00;;;2.42;;
24685;SDS011;12804;51.176;4.452;2023-12-22T07:50:33;18.85;;;3.50;;
24685;SDS011;12804;51.176;4.452;2023-12-22T07:52:59;27.30;;;3.65;;
24685;SDS011;12804;51.176;4.452;2023-12-22T07:55:25;20.30;;;3.40;;
24685;SDS011;12804;51.176;4.452;2023-12-22T07:57:51;16.85;;;3.50;;
24685;SDS011;12804;51.176;4.452;2023-12-22T08:00:17;16.77;;;3.63;;
24685;SDS011;12804;51.176;4.452;2023-12-22T08:02:43;27.17;;;3.50;;
24685;SDS011;12804;51.176;4.452;2023-12-22T08:05:09;17.50;;;3.45;;
24685;SDS011;12804;51.176;4.452;2023-12-22T08:07:35;22.55;;;3.67;;
24685;SDS011;12804;51.176;4.452;2023-12-22T08:10:02;16.63;;;3.50;;
24685;SDS011;12804;51.176;4.452;2023-12-22T08:12:28;17.55;;;3.42;;
24685;SDS011;12804;51.176;4.452;2023-12-22T08:14:54;18.40;;;3.35;;
24685;SDS011;12804;51.176;4.452;2023-12-22T08:17:20;10.32;;;3.25;;
24685;SDS011;12804;51.176;4.452;2023-12-22T08:19:46;17.25;;;3.67;;
24685;SDS011;12804;51.176;4.452;2023-12-22T08:22:12;11.15;;;2.97;;
24685;SDS011;12804;51.176;4.452;2023-12-22T08:24:38;10.00;;;3.22;;
24685;SDS011;12804;51.176;4.452;2023-12-22T08:27:07;13.90;;;3.28;;
24685;SDS011;12804;51.176;4.452;2023-12-22T08:29:33;11.27;;;3.25;;
24685;SDS011;12804;51.176;4.452;2023-12-22T08:31:59;15.15;;;2.97;;
24685;SDS011;12804;51.176;4.452;2023-12-22T08:34:25;11.77;;;3.22;;
24685;SDS011;12804;51.176;4.452;2023-12-22T08:36:52;9.85;;;3.50;;
24685;SDS011;12804;51.176;4.452;2023-12-22T08:39:17;13.75;;;3.65;;
24685;SDS011;12804;51.176;4.452;2023-12-22T08:41:44;8.27;;;3.45;;
24685;SDS011;12804;51.176;4.452;2023-12-22T08:44:10;10.43;;;3.83;;
24685;SDS011;12804;51.176;4.452;2023-12-22T08:46:36;6.78;;;3.10;;
24685;SDS011;12804;51.176;4.452;2023-12-22T08:49:02;11.90;;;3.95;;
24685;SDS011;12804;51.176;4.452;2023-12-22T08:51:28;9.38;;;3.30;;
24685;SDS011;12804;51.176;4.452;2023-12-22T08:53:54;7.57;;;3.20;;
24685;SDS011;12804;51.176;4.452;2023-12-22T08:56:21;10.75;;;3.17;;
24685;SDS011;12804;51.176;4.452;2023-12-22T08:58:47;10.95;;;2.92;;
24685;SDS011;12804;51.176;4.452;2023-12-22T09:01:17;7.68;;;2.95;;
24685;SDS011;12804;51.176;4.452;2023-12-22T09:03:44;6.88;;;2.78;;
24685;SDS011;12804;51.176;4.452;2023-12-22T09:06:16;5.70;;;2.97;;
24685;SDS011;12804;51.176;4.452;2023-12-22T09:08:46;8.73;;;2.90;;
24685;SDS011;12804;51.176;4.452;2023-12-22T09:11:12;9.00;;;2.65;;
24685;SDS011;12804;51.176;4.452;2023-12-22T09:13:42;7.47;;;3.33;;
24685;SDS011;12804;51.176;4.452;2023-12-22T09:16:08;9.07;;;2.72;;
24685;SDS011;12804;51.176;4.452;2023-12-22T09:18:35;10.98;;;3.17;;
24685;SDS011;12804;51.176;4.452;2023-12-22T09:21:01;11.48;;;3.58;;
24685;SDS011;12804;51.176;4.452;2023-12-22T09:23:28;11.27;;;3.13;;
24685;SDS011;12804;51.176;4.452;2023-12-22T09:25:54;6.60;;;3.17;;
24685;SDS011;12804;51.176;4.452;2023-12-22T09:28:20;9.23;;;2.67;;
24685;SDS011;12804;51.176;4.452;2023-12-22T09:30:46;9.40;;;2.70;;
24685;SDS011;12804;51.176;4.452;2023-12-22T09:33:12;9.93;;;2.72;;
24685;SDS011;12804;51.176;4.452;2023-12-22T09:35:37;7.80;;;2.30;;
24685;SDS011;12804;51.176;4.452;2023-12-22T09:38:07;8.63;;;2.65;;
24685;SDS011;12804;51.176;4.452;2023-12-22T09:40:40;8.32;;;2.42;;
24685;SDS011;12804;51.176;4.452;2023-12-22T09:43:07;13.95;;;2.53;;
24685;SDS011;12804;51.176;4.452;2023-12-22T09:45:37;10.57;;;2.53;;
24685;SDS011;12804;51.176;4.452;2023-12-22T09:48:04;7.32;;;1.60;;
24685;SDS011;12804;51.176;4.452;2023-12-22T09:50:31;10.00;;;1.95;;
24685;SDS011;12804;51.176;4.452;2023-12-22T09:52:59;5.03;;;1.20;;
24685;SDS011;12804;51.176;4.452;2023-12-22T09:55:26;8.70;;;1.45;;
24685;SDS011;12804;51.176;4.452;2023-12-22T09:57:54;9.73;;;1.52;;
24685;SDS011;12804;51.176;4.452;2023-12-22T10:00:21;7.32;;;1.55;;
24685;SDS011;12804;51.176;4.452;2023-12-22T10:02:48;15.05;;;1.80;;
24685;SDS011;12804;51.176;4.452;2023-12-22T10:05:14;6.60;;;1.30;;
24685;SDS011;12804;51.176;4.452;2023-12-22T10:07:44;7.50;;;1.15;;
24685;SDS011;12804;51.176;4.452;2023-12-22T10:10:10;6.65;;;1.20;;
24685;SDS011;12804;51.176;4.452;2023-12-22T10:12:37;9.18;;;1.50;;
24685;SDS011;12804;51.176;4.452;2023-12-22T10:15:05;9.77;;;1.23;;
24685;SDS011;12804;51.176;4.452;2023-12-22T10:17:33;7.50;;;1.50;;
24685;SDS011;12804;51.176;4.452;2023-12-22T10:19:59;6.05;;;1.10;;
24685;SDS011;12804;51.176;4.452;2023-12-22T10:22:25;3.28;;;0.80;;
24685;SDS011;12804;51.176;4.452;2023-12-22T10:24:51;4.47;;;0.80;;
24685;SDS011;12804;51.176;4.452;2023-12-22T10:27:17;6.10;;;1.10;;
24685;SDS011;12804;51.176;4.452;2023-12-22T10:29:54;11.25;;;0.80;;
24685;SDS011;12804;51.176;4.452;2023-12-22T10:32:21;3.53;;;1.00;;
24685;SDS011;12804;51.176;4.452;2023-12-22T10:34:47;6.80;;;0.93;;
24685;SDS011;12804;51.176;4.452;2023-12-22T10:37:13;5.75;;;0.70;;
24685;SDS011;12804;51.176;4.452;2023-12-22T10:39:40;5.35;;;1.08;;
24685;SDS011;12804;51.176;4.452;2023-12-22T10:42:06;5.05;;;0.90;;
24685;SDS011;12804;51.176;4.452;2023-12-22T10:44:32;11.30;;;1.60;;
24685;SDS011;12804;51.176;4.452;2023-12-22T10:46:58;3.17;;;0.80;;
24685;SDS011;12804;51.176;4.452;2023-12-22T10:49:26;7.68;;;1.10;;
24685;SDS011;12804;51.176;4.452;2023-12-22T10:51:51;4.60;;;0.70;;
24685;SDS011;12804;51.176;4.452;2023-12-22T10:54:18;7.07;;;1.08;;
24685;SDS011;12804;51.176;4.452;2023-12-22T10:56:44;4.70;;;0.93;;
24685;SDS011;12804;51.176;4.452;2023-12-22T10:59:10;5.70;;;1.08;;
24685;SDS011;12804;51.176;4.452;2023-12-22T11:01:37;4.05;;;0.80;;
24685;SDS011;12804;51.176;4.452;2023-12-22T11:04:09;6.00;;;1.10;;
24685;SDS011;12804;51.176;4.452;2023-12-22T11:06:39;2.70;;;0.80;;
24685;SDS011;12804;51.176;4.452;2023-12-22T11:09:08;5.38;;;0.80;;
24685;SDS011;12804;51.176;4.452;2023-12-22T11:11:35;5.30;;;0.88;;
24685;SDS011;12804;51.176;4.452;2023-12-22T11:14:03;8.27;;;1.30;;
24685;SDS011;12804;51.176;4.452;2023-12-22T11:16:30;3.38;;;0.90;;
24685;SDS011;12804;51.176;4.452;2023-12-22T11:19:01;3.33;;;0.77;;
24685;SDS011;12804;51.176;4.452;2023-12-22T11:21:28;6.10;;;1.30;;
24685;SDS011;12804;51.176;4.452;2023-12-22T11:23:55;7.57;;;0.90;;
24685;SDS011;12804;51.176;4.452;2023-12-22T11:26:22;5.43;;;1.00;;
24685;SDS011;12804;51.176;4.452;2023-12-22T11:28:50;6.72;;;1.00;;
24685;SDS011;12804;51.176;4.452;2023-12-22T11:31:17;2.80;;;0.85;;
24685;SDS011;12804;51.176;4.452;2023-12-22T11:33:44;7.95;;;1.27;;
24685;SDS011;12804;51.176;4.452;2023-12-22T11:36:15;12.73;;;1.60;;
24685;SDS011;12804;51.176;4.452;2023-12-22T11:38:44;5.65;;;1.40;;
24685;SDS011;12804;51.176;4.452;2023-12-22T11:41:18;4.80;;;1.13;;
24685;SDS011;12804;51.176;4.452;2023-12-22T11:43:48;7.10;;;1.30;;
24685;SDS011;12804;51.176;4.452;2023-12-22T11:46:16;5.20;;;1.00;;
24685;SDS011;12804;51.176;4.452;2023-12-22T11:48:49;7.22;;;1.08;;
24685;SDS011;12804;51.176;4.452;2023-12-22T11:51:16;7.60;;;0.93;;
24685;SDS011;12804;51.176;4.452;2023-12-22T11:53:43;6.53;;;0.93;;
24685;SDS011;12804;51.176;4.452;2023-12-22T11:56:10;6.45;;;1.10;;
24685;SDS011;12804;51.176;4.452;2023-12-22T12:01:12;7.68;;;1.25;;
24685;SDS011;12804;51.176;4.452;2023-12-22T12:03:42;8.93;;;1.02;;
24685;SDS011;12804;51.176;4.452;2023-12-22T12:08:55;5.65;;;0.82;;
24685;SDS011;12804;51.176;4.452;2023-12-22T12:11:22;6.57;;;1.10;;
24685;SDS011;12804;51.176;4.452;2023-12-22T12:13:49;5.50;;;0.98;;
24685;SDS011;12804;51.176;4.452;2023-12-22T12:16:19;5.85;;;0.95;;
24685;SDS011;12804;51.176;4.452;2023-12-22T12:18:49;6.25;;;0.93;;
24685;SDS011;12804;51.176;4.452;2023-12-22T12:21:17;5.88;;;1.20;;
24685;SDS011;12804;51.176;4.452;2023-12-22T12:23:43;6.45;;;0.88;;
24685;SDS011;12804;51.176;4.452;2023-12-22T12:26:11;3.67;;;0.98;;
24685;SDS011;12804;51.176;4.452;2023-12-22T12:28:37;7.57;;;1.60;;
24685;SDS011;12804;51.176;4.452;2023-12-22T12:31:07;5.55;;;0.90;;
24685;SDS011;12804;51.176;4.452;2023-12-22T12:33:37;4.00;;;0.88;;
24685;SDS011;12804;51.176;4.452;2023-12-22T12:36:03;3.15;;;0.80;;
24685;SDS011;12804;51.176;4.452;2023-12-22T12:38:36;5.63;;;1.02;;
24685;SDS011;12804;51.176;4.452;2023-12-22T12:41:10;6.30;;;0.98;;
24685;SDS011;12804;51.176;4.452;2023-12-22T12:43:40;7.50;;;1.20;;
24685;SDS011;12804;51.176;4.452;2023-12-22T12:46:08;6.15;;;0.90;;
24685;SDS011;12804;51.176;4.452;2023-12-22T12:48:36;7.43;;;0.90;;
24685;SDS011;12804;51.176;4.452;2023-12-22T12:51:03;6.90;;;0.75;;
24685;SDS011;12804;51.176;4.452;2023-12-22T12:53:30;5.93;;;0.90;;
24685;SDS011;12804;51.176;4.452;2023-12-22T12:55:58;5.38;;;0.85;;
24685;SDS011;12804;51.176;4.452;2023-12-22T12:58:27;3.33;;;0.80;;
24685;SDS011;12804;51.176;4.452;2023-12-22T13:01:03;4.15;;;0.80;;
24685;SDS011;12804;51.176;4.452;2023-12-22T13:03:30;7.40;;;0.95;;
24685;SDS011;12804;51.176;4.452;2023-12-22T13:06:08;4.75;;;0.80;;
24685;SDS011;12804;51.176;4.452;2023-12-22T13:08:34;4.90;;;1.05;;
24685;SDS011;12804;51.176;4.452;2023-12-22T13:11:00;6.93;;;0.75;;
24685;SDS011;12804;51.176;4.452;2023-12-22T13:13:27;5.30;;;0.80;;
24685;SDS011;12804;51.176;4.452;2023-12-22T13:15:53;2.42;;;0.60;;
24685;SDS011;12804;51.176;4.452;2023-12-22T13:18:18;7.50;;;1.05;;
24685;SDS011;12804;51.176;4.452;2023-12-22T13:20:44;5.57;;;1.05;;
24685;SDS011;12804;51.176;4.452;2023-12-22T13:23:11;6.28;;;0.98;;
24685;SDS011;12804;51.176;4.452;2023-12-22T13:25:38;4.75;;;0.73;;
24685;SDS011;12804;51.176;4.452;2023-12-22T13:28:05;3.67;;;1.00;;
24685;SDS011;12804;51.176;4.452;2023-12-22T13:30:37;5.25;;;1.05;;
24685;SDS011;12804;51.176;4.452;2023-12-22T13:33:07;6.38;;;0.88;;
24685;SDS011;12804;51.176;4.452;2023-12-22T13:35:33;4.72;;;0.88;;
24685;SDS011;12804;51.176;4.452;2023-12-22T13:38:06;7.32;;;1.17;;
24685;SDS011;12804;51.176;4.452;2023-12-22T13:40:33;5.50;;;0.95;;
24685;SDS011;12804;51.176;4.452;2023-12-22T13:43:00;4.63;;;1.00;;
24685;SDS011;12804;51.176;4.452;2023-12-22T13:45:29;6.35;;;0.85;;
24685;SDS011;12804;51.176;4.452;2023-12-22T13:47:56;6.40;;;1.02;;
24685;SDS011;12804;51.176;4.452;2023-12-22T13:50:23;3.38;;;0.70;;
24685;SDS011;12804;51.176;4.452;2023-12-22T13:52:49;4.38;;;0.70;;
24685;SDS011;12804;51.176;4.452;2023-12-22T13:55:16;4.70;;;1.15;;
24685;SDS011;12804;51.176;4.452;2023-12-22T13:57:44;5.07;;;0.63;;
24685;SDS011;12804;51.176;4.452;2023-12-22T14:02:45;6.35;;;0.90;;
24685;SDS011;12804;51.176;4.452;2023-12-22T14:05:11;4.00;;;0.85;;
24685;SDS011;12804;51.176;4.452;2023-12-22T14:07:37;7.65;;;1.08;;
24685;SDS011;12804;51.176;4.452;2023-12-22T14:10:06;8.68;;;1.02;;
24685;SDS011;12804;51.176;4.452;2023-12-22T14:12:33;4.95;;;0.65;;
24685;SDS011;12804;51.176;4.452;2023-12-22T14:15:01;4.10;;;0.90;;
24685;SDS011;12804;51.176;4.452;2023-12-22T14:17:27;7.63;;;1.00;;
24685;SDS011;12804;51.176;4.452;2023-12-22T14:19:53;8.48;;;1.13;;
24685;SDS011;12804;51.176;4.452;2023-12-22T14:22:19;4.75;;;0.80;;
24685;SDS011;12804;51.176;4.452;2023-12-22T14:24:44;7.35;;;0.90;;
24685;SDS011;12804;51.176;4.452;2023-12-22T14:27:10;8.20;;;1.30;;
24685;SDS011;12804;51.176;4.452;2023-12-22T14:29:39;5.38;;;0.88;;
24685;SDS011;12804;51.176;4.452;2023-12-22T14:32:07;4.07;;;0.70;;
24685;SDS011;12804;51.176;4.452;2023-12-22T14:34:33;2.20;;;0.70;;
24685;SDS011;12804;51.176;4.452;2023-12-22T14:37:00;5.18;;;0.95;;
24685;SDS011;12804;51.176;4.452;2023-12-22T14:39:26;3.30;;;0.73;;
24685;SDS011;12804;51.176;4.452;2023-12-22T14:41:52;6.75;;;1.13;;
24685;SDS011;12804;51.176;4.452;2023-12-22T14:44:18;5.50;;;1.40;;
24685;SDS011;12804;51.176;4.452;2023-12-22T14:46:44;5.10;;;1.00;;
24685;SDS011;12804;51.176;4.452;2023-12-22T14:49:10;3.92;;;0.75;;
24685;SDS011;12804;51.176;4.452;2023-12-22T14:51:36;8.65;;;0.98;;
24685;SDS011;12804;51.176;4.452;2023-12-22T14:54:06;5.05;;;0.60;;
24685;SDS011;12804;51.176;4.452;2023-12-22T14:56:33;11.55;;;0.90;;